Time;durP1;ratioP1;P1;durP2;ratioP2;P2;SDS_P1;SDS_P2;PMS_P1;PMS_P2;Temp;Humidity;BMP_temperature;BMP_pressure;BME280_temperature;BME280_humidity;BME280_pressure;Samples;Min_cycle;Max_cycle;Signal;HPM_P1;HPM_P2
2022/07/08 00:01:19;;;;;;;19.07;6.00;;;14.60;99.90;;;;;;5011480;28;20438;-82
2022/07/08 00:03:44;;;;;;;24.38;6.18;;;14.50;99.90;;;;;;5011450;28;20441;-83
2022/07/08 00:06:10;;;;;;;22.67;6.10;;;14.50;99.90;;;;;;5011110;28;20818;-83
2022/07/08 00:08:36;;;;;;;19.48;6.30;;;14.50;99.90;;;;;;5011069;28;20375;-82
2022/07/08 00:11:02;;;;;;;19.17;5.73;;;14.40;99.90;;;;;;5011119;28;20784;-83
2022/07/08 00:13:27;;;;;;;20.27;6.88;;;14.30;99.90;;;;;;5010096;28;20453;-83
2022/07/08 00:15:53;;;;;;;20.35;6.03;;;14.30;99.90;;;;;;5010857;28;20845;-83
2022/07/08 00:18:19;;;;;;;18.08;5.95;;;14.20;99.90;;;;;;5011184;28;20426;-83
2022/07/08 00:20:45;;;;;;;20.77;5.65;;;14.20;99.90;;;;;;5009573;28;20387;-82
2022/07/08 00:23:10;;;;;;;19.67;6.30;;;14.10;99.90;;;;;;5010054;28;20432;-83
2022/07/08 00:25:36;;;;;;;21.30;6.15;;;14.20;99.90;;;;;;5010442;28;20399;-83
2022/07/08 00:28:02;;;;;;;24.33;6.80;;;14.20;99.90;;;;;;5011143;28;20497;-83
2022/07/08 00:30:27;;;;;;;24.15;6.80;;;14.20;99.90;;;;;;5009823;28;20399;-84
2022/07/08 00:32:53;;;;;;;19.97;6.57;;;14.20;99.90;;;;;;5011099;28;20399;-83
2022/07/08 00:35:19;;;;;;;15.55;5.82;;;14.10;99.90;;;;;;5011026;28;20387;-82
2022/07/08 00:37:44;;;;;;;19.55;6.63;;;14.10;99.90;;;;;;5011194;28;20478;-83
2022/07/08 00:40:11;;;;;;;21.10;6.20;;;14.20;99.90;;;;;;5010797;28;20395;-84
2022/07/08 00:42:37;;;;;;;17.92;6.22;;;14.20;99.90;;;;;;5009711;28;20387;-82
2022/07/08 00:45:03;;;;;;;21.65;6.80;;;14.20;99.90;;;;;;5010723;28;20386;-82
2022/07/08 00:47:29;;;;;;;20.75;6.88;;;14.10;99.90;;;;;;5009384;28;20399;-82
2022/07/08 00:49:54;;;;;;;22.23;6.63;;;14.10;99.90;;;;;;5009320;28;20449;-81
2022/07/08 00:52:21;;;;;;;27.40;7.20;;;14.10;99.90;;;;;;5009632;28;20400;-82
2022/07/08 00:54:47;;;;;;;21.13;6.95;;;14.10;99.90;;;;;;5009236;28;20402;-85
2022/07/08 00:57:14;;;;;;;21.40;6.25;;;14.10;99.90;;;;;;5010906;28;20379;-83
2022/07/08 00:59:41;;;;;;;21.05;6.78;;;14.00;99.90;;;;;;5010594;28;20394;-83
2022/07/08 01:02:07;;;;;;;27.20;7.15;;;14.10;99.90;;;;;;5010448;28;20375;-84
2022/07/08 01:04:34;;;;;;;20.13;6.43;;;14.20;99.90;;;;;;5010478;28;20447;-82
2022/07/08 01:07:00;;;;;;;23.30;7.30;;;14.30;99.90;;;;;;5010228;28;20461;-84
2022/07/08 01:09:26;;;;;;;22.77;6.60;;;14.30;99.90;;;;;;5010132;28;20499;-83
2022/07/08 01:11:52;;;;;;;22.85;6.53;;;14.40;99.90;;;;;;5010127;28;20494;-83
2022/07/08 01:14:18;;;;;;;20.15;6.35;;;14.50;99.90;;;;;;5009968;28;20375;-84
2022/07/08 01:16:44;;;;;;;21.77;7.53;;;14.60;99.90;;;;;;5010141;28;20386;-84
2022/07/08 01:19:09;;;;;;;19.83;6.53;;;14.60;99.90;;;;;;5010236;28;20995;-82
2022/07/08 01:21:35;;;;;;;19.40;6.37;;;14.80;99.90;;;;;;5010057;28;20394;-83
2022/07/08 01:24:01;;;;;;;22.33;6.60;;;14.80;99.90;;;;;;5009002;28;20380;-84
2022/07/08 01:26:27;;;;;;;19.00;6.90;;;14.80;99.90;;;;;;5008557;28;20490;-82
2022/07/08 01:28:55;;;;;;;25.10;6.20;;;14.90;99.90;;;;;;5008417;28;20458;-82
2022/07/08 01:31:20;;;;;;;23.70;7.18;;;15.00;99.90;;;;;;5009635;28;20410;-84
2022/07/08 01:33:46;;;;;;;25.35;7.35;;;15.00;99.90;;;;;;5010334;28;20865;-83
2022/07/08 01:36:12;;;;;;;20.23;6.03;;;15.10;99.90;;;;;;5010487;28;20383;-84
2022/07/08 01:38:37;;;;;;;20.35;6.65;;;15.10;99.90;;;;;;5009835;28;20387;-83
2022/07/08 01:41:03;;;;;;;23.00;6.40;;;15.10;99.90;;;;;;5008740;28;20453;-84
2022/07/08 01:43:29;;;;;;;22.38;6.95;;;15.20;99.90;;;;;;5008878;28;20429;-83
2022/07/08 01:45:55;;;;;;;21.17;7.17;;;15.30;99.90;;;;;;5009935;28;20383;-82
2022/07/08 01:48:21;;;;;;;18.48;6.53;;;15.20;99.90;;;;;;5008339;28;20872;-83
2022/07/08 01:50:46;;;;;;;22.73;6.82;;;15.20;99.90;;;;;;5010043;28;20746;-82
2022/07/08 01:53:12;;;;;;;24.53;6.50;;;15.20;99.90;;;;;;5009708;28;20379;-83
2022/07/08 01:55:38;;;;;;;24.42;7.10;;;15.30;99.90;;;;;;5009709;28;20395;-82
2022/07/08 01:58:03;;;;;;;25.38;6.93;;;15.30;99.90;;;;;;5009424;28;20447;-82
2022/07/08 02:00:29;;;;;;;21.60;6.87;;;15.20;99.90;;;;;;5009111;28;20391;-83
2022/07/08 02:02:55;;;;;;;20.88;6.15;;;15.20;99.90;;;;;;5010484;28;20380;-82
2022/07/08 02:05:21;;;;;;;22.35;7.00;;;15.10;99.90;;;;;;5007872;28;20380;-84
2022/07/08 02:07:46;;;;;;;21.23;6.37;;;15.20;99.90;;;;;;5010331;28;20410;-82
2022/07/08 02:10:12;;;;;;;18.70;6.38;;;15.10;99.90;;;;;;5009635;28;20449;-84
2022/07/08 02:12:38;;;;;;;22.97;6.17;;;15.10;99.90;;;;;;5009177;28;20900;-82
2022/07/08 02:15:07;;;;;;;23.52;6.47;;;15.10;99.90;;;;;;5008476;28;20379;-84
2022/07/08 02:17:38;;;;;;;23.35;7.40;;;15.00;99.90;;;;;;5009408;28;20391;-83
2022/07/08 02:20:06;;;;;;;22.80;7.55;;;14.90;99.90;;;;;;5009176;28;20880;-81
2022/07/08 02:22:32;;;;;;;21.05;6.22;;;15.00;99.90;;;;;;5009367;28;20429;-84
2022/07/08 02:24:58;;;;;;;20.50;6.75;;;14.90;99.90;;;;;;5009024;28;20386;-82
2022/07/08 02:27:23;;;;;;;24.73;6.73;;;14.90;99.90;;;;;;5009159;28;20383;-82
2022/07/08 02:29:50;;;;;;;23.10;7.00;;;14.90;99.90;;;;;;5009270;28;20371;-82
2022/07/08 02:32:16;;;;;;;22.35;6.70;;;14.90;99.90;;;;;;5008039;28;20407;-82
2022/07/08 02:34:41;;;;;;;24.67;6.93;;;14.90;99.90;;;;;;5008804;28;20401;-83
2022/07/08 02:37:07;;;;;;;20.13;6.47;;;14.80;99.90;;;;;;5009074;28;21035;-83
2022/07/08 02:39:33;;;;;;;20.33;6.75;;;14.80;99.90;;;;;;5009090;28;20383;-85
2022/07/08 02:41:59;;;;;;;24.07;6.90;;;14.80;99.90;;;;;;5008481;28;20391;-84
2022/07/08 02:44:24;;;;;;;19.73;6.28;;;14.90;99.90;;;;;;5009216;28;20849;-82
2022/07/08 02:46:50;;;;;;;22.30;6.73;;;14.90;99.90;;;;;;5008877;28;20391;-83
2022/07/08 02:49:15;;;;;;;22.67;6.43;;;14.90;99.90;;;;;;5008887;28;20383;-83
2022/07/08 02:51:41;;;;;;;21.67;6.63;;;14.90;99.90;;;;;;5012665;28;20992;-83
2022/07/08 02:54:07;;;;;;;22.58;6.82;;;14.80;99.90;;;;;;5012567;28;20372;-84
2022/07/08 02:56:34;;;;;;;21.13;6.93;;;14.80;99.90;;;;;;5012104;28;20885;-83
2022/07/08 02:59:00;;;;;;;22.55;6.18;;;14.90;99.90;;;;;;5012201;28;20453;-84
2022/07/08 03:01:26;;;;;;;20.33;6.55;;;14.90;99.90;;;;;;5012688;28;20383;-82
2022/07/08 03:03:52;;;;;;;21.50;5.93;;;14.90;99.90;;;;;;5012466;28;20792;-83
2022/07/08 03:06:18;;;;;;;21.90;6.38;;;15.00;99.90;;;;;;5012410;28;20445;-83
2022/07/08 03:08:43;;;;;;;23.52;7.25;;;15.00;99.90;;;;;;5012753;28;20875;-84
2022/07/08 03:11:09;;;;;;;17.23;6.00;;;15.10;99.90;;;;;;5010678;28;20409;-83
2022/07/08 03:13:37;;;;;;;21.67;6.30;;;15.10;99.90;;;;;;5010866;28;20387;-82
2022/07/08 03:16:04;;;;;;;22.40;6.53;;;15.10;99.90;;;;;;5012601;28;20891;-83
2022/07/08 03:18:34;;;;;;;23.43;6.63;;;15.20;99.90;;;;;;5010768;28;20387;-83
2022/07/08 03:21:03;;;;;;;17.05;5.60;;;15.20;99.90;;;;;;5012210;28;20394;-83
2022/07/08 03:23:30;;;;;;;21.35;5.85;;;15.30;99.90;;;;;;5012148;28;20445;-82
2022/07/08 03:25:56;;;;;;;14.37;5.20;;;15.30;99.90;;;;;;5011783;28;20387;-83
2022/07/08 03:28:22;;;;;;;18.60;5.70;;;15.30;99.90;;;;;;5010847;28;20402;-82
2022/07/08 03:30:48;;;;;;;17.80;5.60;;;15.30;99.90;;;;;;5011629;28;20371;-84
2022/07/08 03:33:13;;;;;;;20.10;5.33;;;15.20;99.90;;;;;;5011769;28;20702;-82
2022/07/08 03:35:39;;;;;;;15.60;5.43;;;15.30;99.90;;;;;;5011916;28;20391;-82
2022/07/08 03:38:05;;;;;;;19.07;5.53;;;15.40;99.90;;;;;;5012095;28;20511;-83
2022/07/08 03:43:14;;;;;;;17.05;5.45;;;15.40;99.90;;;;;;5012838;28;20437;-82
2022/07/08 03:45:40;;;;;;;17.07;5.77;;;15.40;99.90;;;;;;5011782;28;20387;-83
2022/07/08 03:48:06;;;;;;;19.17;5.87;;;15.40;99.90;;;;;;5011109;28;20380;-82
2022/07/08 03:50:31;;;;;;;15.68;5.35;;;15.40;99.90;;;;;;5010104;28;20405;-82
2022/07/08 03:52:57;;;;;;;18.17;5.67;;;15.50;99.90;;;;;;5011411;28;20399;-82
2022/07/08 03:55:24;;;;;;;19.77;6.32;;;15.40;99.90;;;;;;5011698;28;20740;-82
2022/07/08 03:57:51;;;;;;;18.85;5.80;;;15.30;99.90;;;;;;5011639;28;20896;-81
2022/07/08 04:00:19;;;;;;;17.15;5.53;;;15.40;99.90;;;;;;5011062;28;20375;-82
2022/07/08 04:02:45;;;;;;;19.05;5.50;;;15.40;99.90;;;;;;5010004;28;20398;-81
2022/07/08 04:05:12;;;;;;;18.27;5.20;;;15.40;99.90;;;;;;5010945;28;20455;-83
2022/07/08 04:07:38;;;;;;;12.90;4.72;;;15.40;99.90;;;;;;5009923;28;20387;-82
2022/07/08 04:10:04;;;;;;;16.38;5.25;;;15.40;99.90;;;;;;5010810;28;20390;-84
2022/07/08 04:12:30;;;;;;;16.00;5.57;;;15.50;99.90;;;;;;5008934;28;20415;-83
2022/07/08 04:14:55;;;;;;;15.20;5.60;;;15.50;99.90;;;;;;5010954;28;20383;-84
2022/07/08 04:17:21;;;;;;;15.93;5.20;;;15.50;99.90;;;;;;5010833;28;20389;-84
2022/07/08 04:19:47;;;;;;;14.65;4.97;;;15.50;99.90;;;;;;5010595;28;20375;-84
2022/07/08 04:22:12;;;;;;;15.13;4.80;;;15.60;99.90;;;;;;5010702;28;20376;-84
2022/07/08 04:24:38;;;;;;;15.70;4.85;;;15.50;99.90;;;;;;5010942;28;20382;-83
2022/07/08 04:27:04;;;;;;;13.80;5.23;;;15.50;99.90;;;;;;5010719;28;20399;-82
2022/07/08 04:29:29;;;;;;;15.02;5.20;;;15.50;99.90;;;;;;5010886;28;20379;-83
2022/07/08 04:31:55;;;;;;;16.67;4.90;;;15.40;99.90;;;;;;5010660;28;20403;-83
2022/07/08 04:34:20;;;;;;;15.73;5.47;;;15.40;99.90;;;;;;5010699;28;20868;-83
2022/07/08 04:36:46;;;;;;;14.87;5.00;;;15.30;99.90;;;;;;5011007;28;20410;-82
2022/07/08 04:39:11;;;;;;;13.38;4.60;;;15.40;99.90;;;;;;5010346;28;20375;-83
2022/07/08 04:41:37;;;;;;;17.27;5.00;;;15.40;99.90;;;;;;5009434;28;20410;-82
2022/07/08 04:44:03;;;;;;;13.90;4.78;;;15.30;99.90;;;;;;5010833;28;20386;-84
2022/07/08 04:46:29;;;;;;;10.93;4.30;;;15.40;99.90;;;;;;5008815;28;20483;-84
2022/07/08 04:48:55;;;;;;;14.10;4.88;;;15.40;99.90;;;;;;5010693;28;20375;-84
2022/07/08 04:51:20;;;;;;;14.27;4.80;;;15.30;99.90;;;;;;5010125;28;20395;-84
2022/07/08 04:53:46;;;;;;;15.07;4.82;;;15.30;99.90;;;;;;5010037;28;20382;-82
2022/07/08 04:56:11;;;;;;;16.53;4.70;;;15.30;99.90;;;;;;5010285;28;20501;-84
2022/07/08 04:58:37;;;;;;;25.08;5.63;;;15.40;99.90;;;;;;5010289;28;20391;-83
2022/07/08 05:01:03;;;;;;;13.93;4.73;;;15.40;99.90;;;;;;5010875;28;20714;-83
2022/07/08 05:03:28;;;;;;;12.60;4.85;;;15.40;99.90;;;;;;5010115;28;20371;-83
2022/07/08 05:05:54;;;;;;;16.90;4.97;;;15.30;99.90;;;;;;5010160;28;20453;-83
2022/07/08 05:08:20;;;;;;;14.73;4.78;;;15.20;99.90;;;;;;5010363;28;20467;-82
2022/07/08 05:10:46;;;;;;;15.40;5.20;;;15.20;99.90;;;;;;5010163;28;20907;-82
2022/07/08 05:13:12;;;;;;;18.38;6.03;;;15.20;99.90;;;;;;5008219;28;20492;-83
2022/07/08 05:15:38;;;;;;;12.30;4.53;;;15.10;99.90;;;;;;5010213;28;20399;-83
2022/07/08 05:18:04;;;;;;;15.05;4.88;;;15.10;99.90;;;;;;5010318;28;20418;-83
2022/07/08 05:20:30;;;;;;;16.23;5.07;;;15.20;99.90;;;;;;5010064;28;20999;-82
2022/07/08 05:22:56;;;;;;;15.90;4.73;;;15.20;99.90;;;;;;5009084;28;20406;-82
2022/07/08 05:25:21;;;;;;;16.92;5.40;;;15.20;99.90;;;;;;5009382;28;20391;-84
2022/07/08 05:27:47;;;;;;;15.70;4.83;;;15.30;99.90;;;;;;5010218;28;20908;-84
2022/07/08 05:30:13;;;;;;;17.17;5.00;;;15.30;99.90;;;;;;5010010;28;20411;-84
2022/07/08 05:32:40;;;;;;;13.95;4.93;;;15.30;99.90;;;;;;5010325;28;20407;-83
2022/07/08 05:35:06;;;;;;;11.70;4.38;;;15.40;99.90;;;;;;5010905;28;20406;-84
2022/07/08 05:37:34;;;;;;;12.40;4.72;;;15.40;99.90;;;;;;5011589;28;20432;-83
2022/07/08 05:40:00;;;;;;;12.20;4.25;;;15.40;99.90;;;;;;5010125;28;20386;-83
2022/07/08 05:42:25;;;;;;;14.33;4.40;;;15.40;99.90;;;;;;5009782;28;20761;-83
2022/07/08 05:44:51;;;;;;;13.15;4.32;;;15.50;99.90;;;;;;5009401;28;20391;-83
2022/07/08 05:47:17;;;;;;;18.17;4.50;;;15.60;99.90;;;;;;5010174;28;20411;-83
2022/07/08 05:49:43;;;;;;;16.40;5.22;;;15.60;99.90;;;;;;5016311;28;20386;-83
2022/07/08 05:52:10;;;;;;;16.87;5.33;;;15.60;99.90;;;;;;5024762;28;20886;-84
2022/07/08 05:54:36;;;;;;;15.95;5.00;;;15.50;99.90;;;;;;5029170;28;20464;-83
2022/07/08 05:57:02;;;;;;;14.52;4.93;;;15.70;99.90;;;;;;5026464;28;20819;-82
2022/07/08 05:59:29;;;;;;;14.90;5.05;;;15.50;99.90;;;;;;5027437;28;20451;-83
2022/07/08 06:01:55;;;;;;;15.23;4.65;;;15.50;99.90;;;;;;5027622;28;20879;-83
2022/07/08 06:04:20;;;;;;;16.27;4.60;;;15.50;99.90;;;;;;5027616;28;20378;-83
2022/07/08 06:06:46;;;;;;;14.38;4.30;;;15.70;99.90;;;;;;5027748;28;20472;-83
2022/07/08 06:09:12;;;;;;;17.10;4.32;;;15.80;99.90;;;;;;5028086;28;20389;-83
2022/07/08 06:11:38;;;;;;;16.80;4.80;;;15.70;99.90;;;;;;5028965;28;20413;-82
2022/07/08 06:14:04;;;;;;;14.63;4.15;;;15.60;99.90;;;;;;5028970;28;20413;-82
2022/07/08 06:16:29;;;;;;;14.52;4.45;;;15.50;99.90;;;;;;5028887;28;20464;-83
2022/07/08 06:18:55;;;;;;;14.95;5.00;;;15.50;99.90;;;;;;5028536;28;20850;-83
2022/07/08 06:21:21;;;;;;;13.37;4.33;;;15.60;99.90;;;;;;5028696;28;20436;-83
2022/07/08 06:23:47;;;;;;;14.70;4.90;;;15.50;99.90;;;;;;5028135;28;20890;-83
2022/07/08 06:26:13;;;;;;;12.60;3.78;;;15.60;99.90;;;;;;5028714;28;20388;-82
2022/07/08 06:28:39;;;;;;;12.40;4.38;;;15.60;99.90;;;;;;5032459;28;20491;-82
2022/07/08 06:31:05;;;;;;;14.27;4.60;;;15.60;99.90;;;;;;5032625;28;20378;-83
2022/07/08 06:33:30;;;;;;;11.35;4.30;;;15.60;99.90;;;;;;5032260;28;20957;-82
2022/07/08 06:35:56;;;;;;;14.43;4.03;;;15.60;99.90;;;;;;5023694;28;20470;-83
2022/07/08 06:38:22;;;;;;;13.73;4.53;;;15.60;99.90;;;;;;5026465;28;20799;-83
2022/07/08 06:40:47;;;;;;;12.95;3.92;;;15.70;99.90;;;;;;5019485;28;20454;-83
2022/07/08 06:43:13;;;;;;;12.10;3.77;;;15.90;99.90;;;;;;5030804;28;20428;-83
2022/07/08 06:45:39;;;;;;;12.50;3.92;;;15.90;99.90;;;;;;5031797;28;20396;-82
2022/07/08 06:48:05;;;;;;;12.17;3.97;;;16.00;99.90;;;;;;5030667;28;20792;-82
2022/07/08 06:50:30;;;;;;;12.47;4.03;;;16.20;99.90;;;;;;5032118;28;20465;-84
2022/07/08 06:52:56;;;;;;;9.15;3.50;;;16.20;99.90;;;;;;5032107;28;20401;-83
2022/07/08 06:55:22;;;;;;;15.52;3.92;;;16.30;99.90;;;;;;5032508;28;20382;-84
2022/07/08 06:57:48;;;;;;;11.87;3.67;;;16.20;99.90;;;;;;5030606;28;20380;-82
2022/07/08 07:00:14;;;;;;;12.25;3.88;;;16.40;99.90;;;;;;5032188;28;20381;-83
2022/07/08 07:02:40;;;;;;;10.70;3.78;;;16.40;99.90;;;;;;5031240;28;20788;-82
2022/07/08 07:05:07;;;;;;;13.07;3.55;;;16.40;99.90;;;;;;5031012;28;20414;-83
2022/07/08 07:07:32;;;;;;;12.77;3.95;;;16.40;99.90;;;;;;5031801;28;20423;-82
2022/07/08 07:09:58;;;;;;;11.13;3.53;;;16.50;99.90;;;;;;5031988;28;20431;-83
2022/07/08 07:12:24;;;;;;;12.77;3.90;;;16.50;99.90;;;;;;5025524;28;20408;-81
2022/07/08 07:14:51;;;;;;;11.68;4.00;;;16.60;99.90;;;;;;5025340;28;20488;-83
2022/07/08 07:17:17;;;;;;;9.55;3.38;;;16.60;99.90;;;;;;5030060;28;20403;-82
2022/07/08 07:19:44;;;;;;;11.27;3.30;;;16.70;99.90;;;;;;5031806;28;20951;-82
2022/07/08 07:22:10;;;;;;;10.70;3.20;;;16.90;99.90;;;;;;5030645;28;20404;-81
2022/07/08 07:24:35;;;;;;;11.38;3.30;;;16.90;99.90;;;;;;5031372;28;20389;-83
2022/07/08 07:27:01;;;;;;;14.57;4.07;;;17.00;99.90;;;;;;5031707;28;20394;-83
2022/07/08 07:29:27;;;;;;;11.57;3.78;;;17.00;99.90;;;;;;5031931;28;20412;-83
2022/07/08 07:31:52;;;;;;;13.10;3.23;;;17.30;99.90;;;;;;5032031;28;20409;-82
2022/07/08 07:34:18;;;;;;;10.40;3.13;;;17.30;99.90;;;;;;5030027;28;20879;-83
2022/07/08 07:36:44;;;;;;;12.83;3.50;;;17.50;99.90;;;;;;5032134;28;20413;-84
2022/07/08 07:39:10;;;;;;;11.57;3.45;;;17.80;99.90;;;;;;5031480;28;20408;-83
2022/07/08 07:41:36;;;;;;;10.88;3.60;;;17.90;99.90;;;;;;5033246;28;20467;-83
2022/07/08 07:44:03;;;;;;;12.13;3.20;;;18.10;99.90;;;;;;5030930;28;20914;-84
2022/07/08 07:46:29;;;;;;;12.73;3.22;;;18.20;99.90;;;;;;5030073;28;20516;-83
2022/07/08 07:48:54;;;;;;;11.53;2.87;;;18.20;99.90;;;;;;5030429;28;20469;-84
2022/07/08 07:51:21;;;;;;;8.70;2.63;;;18.00;99.90;;;;;;5031304;28;20972;-84
2022/07/08 07:53:47;;;;;;;8.90;3.00;;;17.80;99.90;;;;;;5033451;28;20377;-83
2022/07/08 07:56:12;;;;;;;9.13;2.90;;;17.90;99.90;;;;;;5031522;28;20527;-84
2022/07/08 07:58:38;;;;;;;11.57;3.23;;;18.10;99.90;;;;;;5031439;28;21038;-83
2022/07/08 08:01:05;;;;;;;10.15;3.30;;;18.40;99.90;;;;;;5030793;28;20377;-84
2022/07/08 08:03:31;;;;;;;11.85;3.55;;;18.30;99.90;;;;;;5030607;28;20389;-83
2022/07/08 08:05:57;;;;;;;9.10;2.80;;;18.50;99.90;;;;;;5031515;28;20469;-83
2022/07/08 08:08:24;;;;;;;9.63;2.90;;;18.50;99.90;;;;;;5030182;28;20385;-82
2022/07/08 08:10:51;;;;;;;7.18;2.83;;;18.50;99.90;;;;;;5030068;28;20378;-84
2022/07/08 08:13:18;;;;;;;7.85;2.60;;;18.40;99.90;;;;;;5030628;28;20409;-83
2022/07/08 08:15:45;;;;;;;8.68;2.55;;;18.30;99.90;;;;;;5031446;28;20381;-83
2022/07/08 08:18:11;;;;;;;7.47;2.80;;;18.40;99.90;;;;;;5031352;28;20445;-83
2022/07/08 08:20:37;;;;;;;11.30;3.05;;;18.30;99.90;;;;;;5031484;28;20461;-84
2022/07/08 08:23:04;;;;;;;8.57;2.88;;;18.20;99.90;;;;;;5031057;28;20382;-82
2022/07/08 08:25:30;;;;;;;11.57;3.00;;;18.10;99.90;;;;;;5030254;28;20751;-84
2022/07/08 08:27:56;;;;;;;9.55;2.83;;;17.90;99.90;;;;;;5030294;28;20393;-85
2022/07/08 08:30:22;;;;;;;10.30;2.77;;;17.90;99.90;;;;;;5019380;28;20455;-82
2022/07/08 08:32:48;;;;;;;10.65;2.60;;;17.90;99.90;;;;;;5030767;28;20915;-84
2022/07/08 08:35:14;;;;;;;11.18;3.70;;;17.90;99.90;;;;;;5031963;28;20525;-83
2022/07/08 08:37:40;;;;;;;11.15;3.00;;;17.80;99.90;;;;;;5031925;28;20377;-85
2022/07/08 08:40:09;;;;;;;8.73;2.60;;;17.90;99.90;;;;;;5030255;28;20385;-82
2022/07/08 08:42:38;;;;;;;8.70;2.60;;;17.70;99.90;;;;;;5030423;28;20492;-83
2022/07/08 08:45:04;;;;;;;8.00;2.33;;;17.70;99.90;;;;;;5030627;28;20417;-84
2022/07/08 08:47:31;;;;;;;9.07;2.63;;;17.80;99.90;;;;;;5029234;28;20460;-83
2022/07/08 08:50:53;;;;;;;8.63;2.70;;;17.90;99.90;;;;;;5029668;28;20795;-83
2022/07/08 08:52:49;;;;;;;10.75;2.80;;;17.80;99.90;;;;;;5023342;28;20413;-82
2022/07/08 08:55:28;;;;;;;9.52;2.60;;;17.80;99.90;;;;;;5010718;28;20462;-84
2022/07/08 08:58:03;;;;;;;11.38;2.75;;;18.00;99.90;;;;;;5011551;28;20375;-83
2022/07/08 09:00:30;;;;;;;10.57;2.88;;;18.10;99.90;;;;;;5012519;28;20400;-84
2022/07/08 09:02:57;;;;;;;9.88;2.70;;;18.10;99.90;;;;;;5013864;28;20375;-84
2022/07/08 09:05:23;;;;;;;7.18;2.55;;;18.00;99.90;;;;;;5011400;28;20730;-83
2022/07/08 09:07:50;;;;;;;7.60;2.42;;;18.00;99.90;;;;;;5010612;28;20888;-83
2022/07/08 09:10:17;;;;;;;8.60;2.78;;;18.00;99.90;;;;;;5011488;28;20403;-85
2022/07/08 09:13:07;;;;;;;10.57;2.78;;;18.10;99.90;;;;;;5011234;28;20403;-85
2022/07/08 09:15:41;;;;;;;9.95;3.08;;;18.10;99.90;;;;;;5009073;28;20741;-84
2022/07/08 09:18:13;;;;;;;13.65;3.42;;;18.10;99.90;;;;;;5009761;28;20850;-84
2022/07/08 09:20:38;;;;;;;10.95;3.20;;;18.10;99.90;;;;;;5008795;28;20395;-83
2022/07/08 09:23:07;;;;;;;12.37;3.40;;;18.30;99.90;;;;;;5009583;28;20728;-84
2022/07/08 09:25:34;;;;;;;8.75;3.03;;;18.40;99.90;;;;;;5015460;28;20411;-84
2022/07/08 09:28:00;;;;;;;9.45;2.85;;;18.60;99.90;;;;;;5030015;28;20898;-84
2022/07/08 09:30:31;;;;;;;11.23;2.70;;;19.20;99.90;;;;;;5028245;28;20445;-83
2022/07/08 09:32:59;;;;;;;11.65;3.28;;;19.20;99.90;;;;;;5031864;28;20409;-83
2022/07/08 09:35:36;;;;;;;11.13;3.05;;;19.30;99.90;;;;;;5029281;28;20882;-85
2022/07/08 09:38:06;;;;;;;9.68;2.90;;;19.50;99.90;;;;;;5029402;28;20782;-85
2022/07/08 09:40:33;;;;;;;9.27;2.80;;;19.60;99.90;;;;;;5029439;28;20386;-82
2022/07/08 09:43:10;;;;;;;6.97;2.63;;;19.40;99.90;;;;;;5023476;28;20448;-84
2022/07/08 09:45:36;;;;;;;10.85;3.00;;;19.30;99.90;;;;;;5018519;28;20405;-83
2022/07/08 09:48:03;;;;;;;9.55;2.95;;;19.30;99.90;;;;;;5019348;28;20978;-83
2022/07/08 09:50:41;;;;;;;12.82;2.80;;;19.60;99.90;;;;;;5018399;28;20474;-83
2022/07/08 09:53:13;;;;;;;7.73;2.43;;;;;;;;;;5012909;28;20418;-84
2022/07/08 09:55:41;;;;;;;8.67;2.63;;;20.30;99.90;;;;;;5016761;28;20375;-83
2022/07/08 09:58:12;;;;;;;7.40;2.63;;;20.40;99.90;;;;;;5018591;28;20725;-84
2022/07/08 10:00:38;;;;;;;8.18;2.30;;;20.30;99.90;;;;;;5030040;28;20814;-84
2022/07/08 10:03:04;;;;;;;10.35;2.53;;;20.40;99.90;;;;;;5024403;28;20760;-83
2022/07/08 10:05:31;;;;;;;11.02;2.60;;;20.60;99.90;;;;;;5028178;28;20403;-83
2022/07/08 10:07:57;;;;;;;8.85;2.55;;;20.60;99.90;;;;;;5019239;28;20392;-81
2022/07/08 10:10:24;;;;;;;8.77;2.30;;;;;;;;;;5029617;28;20393;-83
2022/07/08 10:12:53;;;;;;;7.18;2.28;;;21.10;99.90;;;;;;5027639;28;20407;-83
2022/07/08 10:15:20;;;;;;;8.63;2.53;;;;;;;;;;5022296;28;20413;-83
2022/07/08 10:17:46;;;;;;;6.90;2.05;;;21.70;99.90;;;;;;5032059;28;20910;-83
2022/07/08 10:20:15;;;;;;;6.43;2.20;;;21.70;99.90;;;;;;5023672;28;20392;-85
2022/07/08 10:22:44;;;;;;;8.27;2.55;;;21.70;99.90;;;;;;5020471;28;20399;-84
2022/07/08 10:25:11;;;;;;;5.95;2.15;;;21.60;99.90;;;;;;5020804;28;20394;-85
2022/07/08 10:27:36;;;;;;;9.30;2.47;;;21.60;99.90;;;;;;5011763;28;20776;-83
2022/07/08 10:30:20;;;;;;;7.32;2.35;;;21.50;99.90;;;;;;5010406;28;20426;-85
2022/07/08 10:32:47;;;;;;;8.57;2.13;;;21.60;99.90;;;;;;5010604;28;20414;-86
2022/07/08 10:35:21;;;;;;;8.47;2.20;;;21.70;99.90;;;;;;5012106;28;20426;-84
2022/07/08 10:37:49;;;;;;;7.22;2.30;;;22.10;99.90;;;;;;5023363;28;20775;-87
2022/07/08 10:40:49;;;;;;;8.10;2.00;;;22.40;99.90;;;;;;5017622;28;20382;-83
2022/07/08 10:43:18;;;;;;;5.72;2.20;;;22.60;99.90;;;;;;5020448;28;20736;-84
2022/07/08 10:46:03;;;;;;;6.78;1.75;;;22.70;99.90;;;;;;5025985;28;21003;-85
2022/07/08 10:48:49;;;;;;;7.25;2.55;;;22.60;99.90;;;;;;5016812;28;20390;-84
2022/07/08 10:51:22;;;;;;;7.72;2.80;;;22.30;99.90;;;;;;5016919;28;20397;-85
2022/07/08 10:54:04;;;;;;;7.00;1.90;;;22.10;99.90;;;;;;5022369;28;20863;-85
2022/07/08 10:56:48;;;;;;;6.10;1.93;;;22.10;99.90;;;;;;5012938;28;20392;-85
2022/07/08 10:59:31;;;;;;;4.68;1.75;;;22.60;99.20;;;;;;5021388;28;20773;-84
2022/07/08 11:02:12;;;;;;;5.40;2.13;;;22.50;99.60;;;;;;5020965;28;20506;-84
2022/07/08 11:04:38;;;;;;;4.47;1.75;;;22.70;99.90;;;;;;5022825;28;20414;-85
2022/07/08 11:07:22;;;;;;;5.18;1.90;;;22.70;99.90;;;;;;5020085;28;20387;-84
2022/07/08 11:09:54;;;;;;;9.13;2.10;;;23.00;97.40;;;;;;5021775;28;20437;-83
2022/07/08 11:12:29;;;;;;;4.50;1.83;;;22.90;98.60;;;;;;5001381;28;20503;-84
2022/07/08 11:14:57;;;;;;;6.65;1.77;;;23.00;98.00;;;;;;5017696;28;20373;-82
2022/07/08 11:17:25;;;;;;;5.80;2.00;;;23.00;99.50;;;;;;5026502;28;20453;-84
2022/07/08 11:19:52;;;;;;;5.30;1.55;;;23.60;98.50;;;;;;5021051;28;20385;-85
2022/07/08 11:22:22;;;;;;;6.88;1.80;;;23.90;98.50;;;;;;5028970;28;20373;-84
2022/07/08 11:24:48;;;;;;;4.50;1.60;;;23.90;98.20;;;;;;5031300;28;20410;-83
2022/07/08 11:27:16;;;;;;;6.65;2.03;;;23.80;96.00;;;;;;5014870;28;20432;-84
2022/07/08 11:29:52;;;;;;;5.70;1.90;;;23.50;97.50;;;;;;5024216;28;20406;-83
2022/07/08 11:32:19;;;;;;;5.55;2.05;;;23.50;97.00;;;;;;5023902;28;21095;-83
2022/07/08 11:34:46;;;;;;;4.88;1.90;;;23.40;98.10;;;;;;5017416;28;20393;-84
2022/07/08 11:37:13;;;;;;;6.30;1.80;;;23.10;96.60;;;;;;5022766;28;20399;-84
2022/07/08 11:39:40;;;;;;;7.75;2.28;;;22.40;97.50;;;;;;5023452;28;20410;-84
2022/07/08 11:42:08;;;;;;;5.20;1.80;;;22.10;98.70;;;;;;5014124;28;20391;-84
2022/07/08 11:44:33;;;;;;;8.27;2.00;;;21.90;98.90;;;;;;5024637;28;20386;-84
2022/07/08 11:46:59;;;;;;;5.90;1.90;;;21.90;99.30;;;;;;5017946;28;20919;-84
2022/07/08 11:49:25;;;;;;;5.90;1.90;;;21.90;99.20;;;;;;5019004;28;21038;-84
2022/07/08 11:51:52;;;;;;;5.80;2.23;;;22.10;99.90;;;;;;5022753;28;20930;-84
2022/07/08 11:54:23;;;;;;;5.53;1.80;;;22.10;99.90;;;;;;5019267;28;20471;-83
2022/07/08 11:56:53;;;;;;;8.18;2.15;;;22.00;99.90;;;;;;5018726;28;20379;-81
2022/07/08 11:59:23;;;;;;;6.32;1.75;;;22.00;99.70;;;;;;5018213;28;20895;-84
2022/07/08 12:01:50;;;;;;;7.95;2.08;;;21.80;99.70;;;;;;5016700;28;20394;-84
2022/07/08 12:04:16;;;;;;;7.15;1.90;;;21.70;99.90;;;;;;5016819;28;20741;-84
2022/07/08 12:06:51;;;;;;;6.05;1.70;;;21.70;99.70;;;;;;5025410;28;20381;-84
2022/07/08 12:09:19;;;;;;;7.00;1.93;;;21.60;99.90;;;;;;5019582;28;20395;-83
2022/07/08 12:11:48;;;;;;;5.10;2.08;;;21.60;99.90;;;;;;5018845;28;20834;-83
2022/07/08 12:14:14;;;;;;;5.37;1.97;;;21.80;99.90;;;;;;5018029;28;20442;-84
2022/07/08 12:16:45;;;;;;;7.32;2.03;;;21.90;99.90;;;;;;5023312;28;20908;-84
2022/07/08 12:19:36;;;;;;;7.03;2.10;;;22.00;99.90;;;;;;5018641;28;20427;-83
2022/07/08 12:22:04;;;;;;;11.38;2.78;;;21.90;99.90;;;;;;5020467;28;20398;-85
2022/07/08 12:24:34;;;;;;;6.83;2.07;;;21.70;99.90;;;;;;5019253;28;20398;-83
2022/07/08 12:27:01;;;;;;;6.85;2.10;;;21.60;99.90;;;;;;5018862;28;20379;-82
2022/07/08 12:29:31;;;;;;;6.80;2.22;;;21.50;99.90;;;;;;5021168;28;20379;-84
2022/07/08 12:31:56;;;;;;;7.72;2.20;;;21.30;99.90;;;;;;5023800;28;20413;-83
2022/07/08 12:34:24;;;;;;;7.50;2.17;;;21.20;99.90;;;;;;5021027;28;20401;-83
2022/07/08 12:36:50;;;;;;;6.17;2.10;;;21.30;99.90;;;;;;5021422;28;20966;-83
2022/07/08 12:39:28;;;;;;;5.88;2.10;;;21.30;99.90;;;;;;5012046;28;20404;-84
2022/07/08 12:42:02;;;;;;;8.15;2.13;;;21.40;99.90;;;;;;5019239;28;20393;-84
2022/07/08 12:44:40;;;;;;;8.43;1.90;;;21.90;99.90;;;;;;5019451;28;20476;-85